sensor_id;sensor_type;location;lat;lon;timestamp;P1;durP1;ratioP1;P2;durP2;ratioP2
29500;SDS011;16450;50.288;10.966;2023-02-01T00:00:18;9.97;;;5.20;;
29500;SDS011;16450;50.288;10.966;2023-02-01T00:03:20;8.80;;;5.60;;
29500;SDS011;16450;50.288;10.966;2023-02-01T00:06:22;8.40;;;5.10;;
29500;SDS011;16450;50.288;10.966;2023-02-01T00:09:24;9.77;;;5.37;;
29500;SDS011;16450;50.288;10.966;2023-02-01T00:12:26;10.33;;;5.07;;
29500;SDS011;16450;50.288;10.966;2023-02-01T00:15:28;9.20;;;5.00;;
29500;SDS011;16450;50.288;10.966;2023-02-01T00:18:30;7.10;;;4.30;;
29500;SDS011;16450;50.288;10.966;2023-02-01T00:21:32;9.13;;;5.00;;
29500;SDS011;16450;50.288;10.966;2023-02-01T00:24:34;15.07;;;6.47;;
29500;SDS011;16450;50.288;10.966;2023-02-01T00:27:36;24.77;;;11.83;;
29500;SDS011;16450;50.288;10.966;2023-02-01T00:30:38;32.87;;;14.37;;
29500;SDS011;16450;50.288;10.966;2023-02-01T00:33:40;47.37;;;20.70;;
29500;SDS011;16450;50.288;10.966;2023-02-01T00:36:42;12.27;;;6.80;;
29500;SDS011;16450;50.288;10.966;2023-02-01T00:39:44;8.67;;;5.40;;
29500;SDS011;16450;50.288;10.966;2023-02-01T00:42:46;10.43;;;5.70;;
29500;SDS011;16450;50.288;10.966;2023-02-01T00:45:48;8.23;;;5.63;;
29500;SDS011;16450;50.288;10.966;2023-02-01T00:48:50;7.80;;;5.40;;
29500;SDS011;16450;50.288;10.966;2023-02-01T00:51:51;10.20;;;5.37;;
29500;SDS011;16450;50.288;10.966;2023-02-01T00:54:53;8.90;;;4.97;;
29500;SDS011;16450;50.288;10.966;2023-02-01T00:57:55;8.23;;;4.80;;
29500;SDS011;16450;50.288;10.966;2023-02-01T01:01:13;10.13;;;4.77;;
29500;SDS011;16450;50.288;10.966;2023-02-01T01:04:15;7.30;;;4.70;;
29500;SDS011;16450;50.288;10.966;2023-02-01T01:07:17;8.43;;;4.90;;
29500;SDS011;16450;50.288;10.966;2023-02-01T01:10:19;8.90;;;3.67;;
29500;SDS011;16450;50.288;10.966;2023-02-01T01:13:21;5.23;;;1.90;;
29500;SDS011;16450;50.288;10.966;2023-02-01T01:16:24;5.23;;;1.60;;
29500;SDS011;16450;50.288;10.966;2023-02-01T01:19:27;3.37;;;1.60;;
29500;SDS011;16450;50.288;10.966;2023-02-01T01:22:29;2.07;;;1.43;;
29500;SDS011;16450;50.288;10.966;2023-02-01T01:25:31;1.60;;;1.20;;
29500;SDS011;16450;50.288;10.966;2023-02-01T01:28:33;3.83;;;1.50;;
29500;SDS011;16450;50.288;10.966;2023-02-01T01:31:34;2.73;;;1.53;;
29500;SDS011;16450;50.288;10.966;2023-02-01T01:34:36;3.20;;;1.37;;
29500;SDS011;16450;50.288;10.966;2023-02-01T01:37:38;1.93;;;1.53;;
29500;SDS011;16450;50.288;10.966;2023-02-01T01:40:40;4.17;;;1.87;;
29500;SDS011;16450;50.288;10.966;2023-02-01T01:46:56;3.43;;;2.27;;
29500;SDS011;16450;50.288;10.966;2023-02-01T01:49:58;4.43;;;2.17;;
29500;SDS011;16450;50.288;10.966;2023-02-01T01:53:04;4.30;;;2.07;;
29500;SDS011;16450;50.288;10.966;2023-02-01T01:56:09;3.70;;;2.40;;
29500;SDS011;16450;50.288;10.966;2023-02-01T01:59:11;3.10;;;2.27;;
29500;SDS011;16450;50.288;10.966;2023-02-01T02:02:13;4.43;;;2.60;;
29500;SDS011;16450;50.288;10.966;2023-02-01T02:05:16;4.53;;;2.80;;
29500;SDS011;16450;50.288;10.966;2023-02-01T02:08:20;6.77;;;3.07;;
29500;SDS011;16450;50.288;10.966;2023-02-01T02:11:23;4.07;;;3.00;;
29500;SDS011;16450;50.288;10.966;2023-02-01T02:14:25;5.63;;;3.07;;
29500;SDS011;16450;50.288;10.966;2023-02-01T02:34:44;8.60;;;3.50;;
29500;SDS011;16450;50.288;10.966;2023-02-01T02:38:00;6.77;;;3.50;;
29500;SDS011;16450;50.288;10.966;2023-02-01T02:48:37;4.73;;;2.97;;
29500;SDS011;16450;50.288;10.966;2023-02-01T02:52:05;8.13;;;4.07;;
29500;SDS011;16450;50.288;10.966;2023-02-01T02:55:32;8.57;;;3.77;;
29500;SDS011;16450;50.288;10.966;2023-02-01T02:58:38;10.33;;;4.13;;
29500;SDS011;16450;50.288;10.966;2023-02-01T03:01:59;8.10;;;4.50;;
29500;SDS011;16450;50.288;10.966;2023-02-01T03:05:19;8.73;;;4.90;;
29500;SDS011;16450;50.288;10.966;2023-02-01T03:08:22;10.80;;;5.50;;
29500;SDS011;16450;50.288;10.966;2023-02-01T03:11:26;11.73;;;5.50;;
29500;SDS011;16450;50.288;10.966;2023-02-01T03:14:50;8.63;;;5.07;;
29500;SDS011;16450;50.288;10.966;2023-02-01T03:17:56;13.47;;;5.63;;
29500;SDS011;16450;50.288;10.966;2023-02-01T03:21:02;10.93;;;5.63;;
29500;SDS011;16450;50.288;10.966;2023-02-01T03:24:11;10.63;;;5.40;;
29500;SDS011;16450;50.288;10.966;2023-02-01T03:27:24;9.17;;;5.37;;
29500;SDS011;16450;50.288;10.966;2023-02-01T03:30:32;15.43;;;5.93;;
29500;SDS011;16450;50.288;10.966;2023-02-01T03:33:37;9.07;;;5.70;;
29500;SDS011;16450;50.288;10.966;2023-02-01T03:36:50;10.40;;;5.70;;
29500;SDS011;16450;50.288;10.966;2023-02-01T03:39:59;11.73;;;5.63;;
29500;SDS011;16450;50.288;10.966;2023-02-01T03:43:04;10.27;;;5.30;;
29500;SDS011;16450;50.288;10.966;2023-02-01T03:46:12;12.83;;;6.27;;
29500;SDS011;16450;50.288;10.966;2023-02-01T03:49:29;12.70;;;5.57;;
29500;SDS011;16450;50.288;10.966;2023-02-01T03:52:48;16.03;;;6.50;;
29500;SDS011;16450;50.288;10.966;2023-02-01T03:55:54;13.10;;;6.00;;
29500;SDS011;16450;50.288;10.966;2023-02-01T03:58:58;13.13;;;6.30;;
29500;SDS011;16450;50.288;10.966;2023-02-01T04:02:00;14.17;;;7.10;;
29500;SDS011;16450;50.288;10.966;2023-02-01T04:05:02;11.70;;;6.20;;
29500;SDS011;16450;50.288;10.966;2023-02-01T04:08:04;12.57;;;5.93;;
29500;SDS011;16450;50.288;10.966;2023-02-01T04:11:06;12.80;;;6.07;;
29500;SDS011;16450;50.288;10.966;2023-02-01T04:14:08;9.57;;;5.63;;
29500;SDS011;16450;50.288;10.966;2023-02-01T04:17:09;12.93;;;5.43;;
29500;SDS011;16450;50.288;10.966;2023-02-01T04:20:11;9.10;;;5.17;;
29500;SDS011;16450;50.288;10.966;2023-02-01T04:23:13;14.33;;;5.17;;
29500;SDS011;16450;50.288;10.966;2023-02-01T04:26:16;13.43;;;5.37;;
29500;SDS011;16450;50.288;10.966;2023-02-01T04:29:18;13.60;;;5.90;;
29500;SDS011;16450;50.288;10.966;2023-02-01T04:32:20;14.23;;;6.70;;
29500;SDS011;16450;50.288;10.966;2023-02-01T04:35:22;16.23;;;6.53;;
29500;SDS011;16450;50.288;10.966;2023-02-01T04:38:23;14.17;;;6.63;;
29500;SDS011;16450;50.288;10.966;2023-02-01T04:41:25;13.93;;;7.40;;
29500;SDS011;16450;50.288;10.966;2023-02-01T04:44:27;13.87;;;7.50;;
29500;SDS011;16450;50.288;10.966;2023-02-01T04:47:29;14.03;;;7.73;;
29500;SDS011;16450;50.288;10.966;2023-02-01T04:50:31;14.27;;;7.77;;
29500;SDS011;16450;50.288;10.966;2023-02-01T04:53:33;14.07;;;7.70;;
29500;SDS011;16450;50.288;10.966;2023-02-01T04:56:34;17.03;;;7.10;;
29500;SDS011;16450;50.288;10.966;2023-02-01T04:59:36;11.83;;;6.67;;
29500;SDS011;16450;50.288;10.966;2023-02-01T05:02:38;11.63;;;6.57;;
29500;SDS011;16450;50.288;10.966;2023-02-01T05:05:40;10.70;;;6.27;;
29500;SDS011;16450;50.288;10.966;2023-02-01T05:08:42;12.93;;;6.20;;
29500;SDS011;16450;50.288;10.966;2023-02-01T05:11:44;13.17;;;6.77;;
29500;SDS011;16450;50.288;10.966;2023-02-01T05:15:04;13.03;;;7.23;;
29500;SDS011;16450;50.288;10.966;2023-02-01T05:18:07;12.93;;;6.17;;
29500;SDS011;16450;50.288;10.966;2023-02-01T05:21:09;13.47;;;6.50;;
29500;SDS011;16450;50.288;10.966;2023-02-01T05:24:11;13.80;;;6.27;;
29500;SDS011;16450;50.288;10.966;2023-02-01T05:27:21;14.13;;;6.60;;
29500;SDS011;16450;50.288;10.966;2023-02-01T05:30:23;13.17;;;5.70;;
29500;SDS011;16450;50.288;10.966;2023-02-01T05:33:25;12.63;;;5.67;;
29500;SDS011;16450;50.288;10.966;2023-02-01T05:36:27;15.53;;;6.00;;
29500;SDS011;16450;50.288;10.966;2023-02-01T05:39:29;11.47;;;5.40;;
29500;SDS011;16450;50.288;10.966;2023-02-01T05:42:30;13.83;;;4.97;;
29500;SDS011;16450;50.288;10.966;2023-02-01T05:45:32;12.47;;;5.20;;
29500;SDS011;16450;50.288;10.966;2023-02-01T05:48:34;12.93;;;5.20;;
29500;SDS011;16450;50.288;10.966;2023-02-01T05:51:36;15.03;;;5.57;;
29500;SDS011;16450;50.288;10.966;2023-02-01T05:54:37;14.13;;;5.27;;
29500;SDS011;16450;50.288;10.966;2023-02-01T05:57:39;10.13;;;5.23;;
29500;SDS011;16450;50.288;10.966;2023-02-01T06:00:41;12.80;;;5.90;;
29500;SDS011;16450;50.288;10.966;2023-02-01T06:03:43;14.87;;;5.63;;
29500;SDS011;16450;50.288;10.966;2023-02-01T06:06:45;14.27;;;5.57;;
29500;SDS011;16450;50.288;10.966;2023-02-01T06:09:46;12.07;;;5.13;;
29500;SDS011;16450;50.288;10.966;2023-02-01T06:12:48;10.97;;;4.67;;
29500;SDS011;16450;50.288;10.966;2023-02-01T06:15:50;14.40;;;6.40;;
29500;SDS011;16450;50.288;10.966;2023-02-01T06:18:52;16.43;;;5.37;;
29500;SDS011;16450;50.288;10.966;2023-02-01T06:21:54;12.17;;;4.90;;
29500;SDS011;16450;50.288;10.966;2023-02-01T06:24:56;13.20;;;5.73;;
29500;SDS011;16450;50.288;10.966;2023-02-01T06:28:00;12.23;;;5.23;;
29500;SDS011;16450;50.288;10.966;2023-02-01T06:31:03;15.03;;;5.20;;
29500;SDS011;16450;50.288;10.966;2023-02-01T06:34:08;12.10;;;5.30;;
29500;SDS011;16450;50.288;10.966;2023-02-01T06:37:09;14.90;;;5.53;;
29500;SDS011;16450;50.288;10.966;2023-02-01T06:40:12;12.47;;;5.20;;
29500;SDS011;16450;50.288;10.966;2023-02-01T06:43:14;12.77;;;4.83;;
29500;SDS011;16450;50.288;10.966;2023-02-01T06:46:16;12.60;;;4.53;;
29500;SDS011;16450;50.288;10.966;2023-02-01T06:49:17;14.43;;;4.83;;
29500;SDS011;16450;50.288;10.966;2023-02-01T06:52:21;12.90;;;4.47;;
29500;SDS011;16450;50.288;10.966;2023-02-01T06:55:22;14.87;;;4.90;;
29500;SDS011;16450;50.288;10.966;2023-02-01T06:58:27;11.43;;;4.73;;
29500;SDS011;16450;50.288;10.966;2023-02-01T07:01:33;13.67;;;4.60;;
29500;SDS011;16450;50.288;10.966;2023-02-01T07:04:35;15.43;;;4.57;;
29500;SDS011;16450;50.288;10.966;2023-02-01T07:07:37;17.77;;;4.47;;
29500;SDS011;16450;50.288;10.966;2023-02-01T07:10:41;15.27;;;4.50;;
29500;SDS011;16450;50.288;10.966;2023-02-01T07:13:43;17.07;;;4.57;;
29500;SDS011;16450;50.288;10.966;2023-02-01T07:16:45;12.50;;;4.50;;
29500;SDS011;16450;50.288;10.966;2023-02-01T07:19:47;13.90;;;4.47;;
29500;SDS011;16450;50.288;10.966;2023-02-01T07:22:53;12.30;;;4.40;;
29500;SDS011;16450;50.288;10.966;2023-02-01T07:25:57;16.60;;;4.23;;
29500;SDS011;16450;50.288;10.966;2023-02-01T07:29:01;13.07;;;4.90;;
29500;SDS011;16450;50.288;10.966;2023-02-01T07:32:03;17.17;;;4.60;;
29500;SDS011;16450;50.288;10.966;2023-02-01T07:35:05;12.43;;;4.07;;
29500;SDS011;16450;50.288;10.966;2023-02-01T07:38:07;13.13;;;4.17;;
29500;SDS011;16450;50.288;10.966;2023-02-01T07:41:09;10.90;;;4.47;;
29500;SDS011;16450;50.288;10.966;2023-02-01T07:44:11;12.17;;;4.40;;
29500;SDS011;16450;50.288;10.966;2023-02-01T07:47:13;12.83;;;4.30;;
29500;SDS011;16450;50.288;10.966;2023-02-01T07:50:15;8.60;;;3.87;;
29500;SDS011;16450;50.288;10.966;2023-02-01T07:53:17;17.97;;;4.53;;
29500;SDS011;16450;50.288;10.966;2023-02-01T07:56:19;16.57;;;4.63;;
29500;SDS011;16450;50.288;10.966;2023-02-01T07:59:23;12.80;;;4.50;;
29500;SDS011;16450;50.288;10.966;2023-02-01T08:02:26;15.27;;;4.27;;
29500;SDS011;16450;50.288;10.966;2023-02-01T08:05:27;12.73;;;3.97;;
29500;SDS011;16450;50.288;10.966;2023-02-01T08:08:29;13.10;;;4.70;;
29500;SDS011;16450;50.288;10.966;2023-02-01T08:11:31;12.00;;;3.87;;
29500;SDS011;16450;50.288;10.966;2023-02-01T08:14:33;13.83;;;4.03;;
29500;SDS011;16450;50.288;10.966;2023-02-01T08:17:35;12.47;;;3.70;;
29500;SDS011;16450;50.288;10.966;2023-02-01T08:20:37;11.87;;;3.77;;
29500;SDS011;16450;50.288;10.966;2023-02-01T08:23:42;12.50;;;3.93;;
29500;SDS011;16450;50.288;10.966;2023-02-01T08:26:44;9.80;;;4.10;;
29500;SDS011;16450;50.288;10.966;2023-02-01T08:29:46;12.43;;;3.80;;
29500;SDS011;16450;50.288;10.966;2023-02-01T08:32:48;16.67;;;5.10;;
29500;SDS011;16450;50.288;10.966;2023-02-01T08:35:49;14.10;;;3.60;;
29500;SDS011;16450;50.288;10.966;2023-02-01T08:38:51;13.33;;;3.60;;
29500;SDS011;16450;50.288;10.966;2023-02-01T08:41:53;17.13;;;4.00;;
29500;SDS011;16450;50.288;10.966;2023-02-01T08:45:13;12.80;;;3.40;;
29500;SDS011;16450;50.288;10.966;2023-02-01T08:48:15;16.43;;;3.33;;
29500;SDS011;16450;50.288;10.966;2023-02-01T08:51:18;13.43;;;3.60;;
29500;SDS011;16450;50.288;10.966;2023-02-01T08:54:21;12.40;;;3.80;;
29500;SDS011;16450;50.288;10.966;2023-02-01T08:57:23;11.23;;;3.10;;
29500;SDS011;16450;50.288;10.966;2023-02-01T09:00:25;12.63;;;3.60;;
29500;SDS011;16450;50.288;10.966;2023-02-01T09:03:27;11.43;;;3.20;;
29500;SDS011;16450;50.288;10.966;2023-02-01T09:06:29;14.40;;;3.30;;
29500;SDS011;16450;50.288;10.966;2023-02-01T09:09:30;11.97;;;3.40;;
29500;SDS011;16450;50.288;10.966;2023-02-01T09:12:33;12.90;;;3.27;;
29500;SDS011;16450;50.288;10.966;2023-02-01T09:15:36;14.47;;;3.57;;
29500;SDS011;16450;50.288;10.966;2023-02-01T09:18:38;15.83;;;3.53;;
29500;SDS011;16450;50.288;10.966;2023-02-01T09:21:56;9.50;;;3.50;;
29500;SDS011;16450;50.288;10.966;2023-02-01T09:24:58;11.87;;;3.10;;
29500;SDS011;16450;50.288;10.966;2023-02-01T09:28:00;13.00;;;3.73;;
29500;SDS011;16450;50.288;10.966;2023-02-01T09:31:02;9.87;;;3.40;;
29500;SDS011;16450;50.288;10.966;2023-02-01T09:34:04;10.77;;;3.03;;
29500;SDS011;16450;50.288;10.966;2023-02-01T09:37:06;11.23;;;3.37;;
29500;SDS011;16450;50.288;10.966;2023-02-01T09:40:12;12.20;;;3.70;;
29500;SDS011;16450;50.288;10.966;2023-02-01T09:43:41;13.27;;;3.93;;
29500;SDS011;16450;50.288;10.966;2023-02-01T09:46:44;11.53;;;3.30;;
29500;SDS011;16450;50.288;10.966;2023-02-01T09:49:59;13.77;;;3.60;;
29500;SDS011;16450;50.288;10.966;2023-02-01T09:53:30;14.63;;;3.53;;
29500;SDS011;16450;50.288;10.966;2023-02-01T09:56:38;14.87;;;3.50;;
29500;SDS011;16450;50.288;10.966;2023-02-01T09:59:49;13.47;;;3.50;;
29500;SDS011;16450;50.288;10.966;2023-02-01T10:02:59;14.00;;;3.30;;
29500;SDS011;16450;50.288;10.966;2023-02-01T10:13:02;11.70;;;3.37;;
29500;SDS011;16450;50.288;10.966;2023-02-01T10:16:27;14.83;;;3.80;;
29500;SDS011;16450;50.288;10.966;2023-02-01T10:22:54;12.17;;;3.13;;
29500;SDS011;16450;50.288;10.966;2023-02-01T10:26:24;12.27;;;3.73;;
29500;SDS011;16450;50.288;10.966;2023-02-01T10:29:36;10.83;;;3.47;;
29500;SDS011;16450;50.288;10.966;2023-02-01T10:32:41;8.67;;;3.17;;
29500;SDS011;16450;50.288;10.966;2023-02-01T10:35:46;10.33;;;3.50;;
29500;SDS011;16450;50.288;10.966;2023-02-01T10:38:56;12.57;;;3.67;;
29500;SDS011;16450;50.288;10.966;2023-02-01T10:42:01;12.87;;;3.30;;
29500;SDS011;16450;50.288;10.966;2023-02-01T10:45:03;12.23;;;3.57;;
29500;SDS011;16450;50.288;10.966;2023-02-01T10:48:06;12.97;;;3.90;;
29500;SDS011;16450;50.288;10.966;2023-02-01T10:51:19;12.80;;;3.80;;
29500;SDS011;16450;50.288;10.966;2023-02-01T10:54:34;13.40;;;3.30;;
29500;SDS011;16450;50.288;10.966;2023-02-01T10:57:39;13.00;;;3.73;;
29500;SDS011;16450;50.288;10.966;2023-02-01T11:00:56;11.67;;;3.60;;
29500;SDS011;16450;50.288;10.966;2023-02-01T11:04:02;11.73;;;3.80;;
29500;SDS011;16450;50.288;10.966;2023-02-01T11:07:15;14.60;;;4.23;;
29500;SDS011;16450;50.288;10.966;2023-02-01T11:10:40;11.20;;;3.60;;
29500;SDS011;16450;50.288;10.966;2023-02-01T11:13:43;11.80;;;3.30;;
29500;SDS011;16450;50.288;10.966;2023-02-01T11:16:51;6.77;;;3.20;;
29500;SDS011;16450;50.288;10.966;2023-02-01T11:19:59;12.30;;;3.50;;
29500;SDS011;16450;50.288;10.966;2023-02-01T11:23:02;13.97;;;3.40;;
29500;SDS011;16450;50.288;10.966;2023-02-01T11:26:11;10.93;;;3.57;;
29500;SDS011;16450;50.288;10.966;2023-02-01T11:29:17;11.13;;;3.80;;
29500;SDS011;16450;50.288;10.966;2023-02-01T11:32:23;9.27;;;3.23;;
29500;SDS011;16450;50.288;10.966;2023-02-01T11:35:26;10.97;;;3.50;;
29500;SDS011;16450;50.288;10.966;2023-02-01T11:38:32;10.43;;;3.47;;
29500;SDS011;16450;50.288;10.966;2023-02-01T11:41:35;11.77;;;3.63;;
29500;SDS011;16450;50.288;10.966;2023-02-01T11:44:43;11.50;;;4.43;;
29500;SDS011;16450;50.288;10.966;2023-02-01T11:47:48;16.37;;;4.13;;
29500;SDS011;16450;50.288;10.966;2023-02-01T11:54:18;11.93;;;3.53;;
29500;SDS011;16450;50.288;10.966;2023-02-01T11:57:38;13.47;;;3.27;;
29500;SDS011;16450;50.288;10.966;2023-02-01T12:01:15;15.30;;;3.63;;
29500;SDS011;16450;50.288;10.966;2023-02-01T12:04:34;10.77;;;3.43;;
29500;SDS011;16450;50.288;10.966;2023-02-01T12:28:10;12.07;;;3.70;;
29500;SDS011;16450;50.288;10.966;2023-02-01T12:31:41;14.33;;;3.40;;
29500;SDS011;16450;50.288;10.966;2023-02-01T12:35:22;8.83;;;3.90;;
29500;SDS011;16450;50.288;10.966;2023-02-01T12:45:26;13.10;;;3.07;;
29500;SDS011;16450;50.288;10.966;2023-02-01T12:48:58;12.10;;;3.10;;
29500;SDS011;16450;50.288;10.966;2023-02-01T12:52:10;11.10;;;3.00;;
29500;SDS011;16450;50.288;10.966;2023-02-01T12:55:41;13.33;;;2.90;;
29500;SDS011;16450;50.288;10.966;2023-02-01T12:58:52;12.17;;;3.00;;
29500;SDS011;16450;50.288;10.966;2023-02-01T13:05:19;10.87;;;3.07;;
29500;SDS011;16450;50.288;10.966;2023-02-01T13:08:28;9.60;;;3.27;;
29500;SDS011;16450;50.288;10.966;2023-02-01T13:11:42;10.57;;;2.90;;
29500;SDS011;16450;50.288;10.966;2023-02-01T13:14:49;9.90;;;3.07;;
29500;SDS011;16450;50.288;10.966;2023-02-01T13:18:00;13.23;;;3.17;;
29500;SDS011;16450;50.288;10.966;2023-02-01T13:21:16;10.80;;;2.87;;
29500;SDS011;16450;50.288;10.966;2023-02-01T13:27:34;9.47;;;2.87;;
29500;SDS011;16450;50.288;10.966;2023-02-01T13:30:38;8.67;;;3.20;;
29500;SDS011;16450;50.288;10.966;2023-02-01T13:44:31;10.83;;;2.77;;
29500;SDS011;16450;50.288;10.966;2023-02-01T13:47:47;13.93;;;3.33;;
29500;SDS011;16450;50.288;10.966;2023-02-01T13:50:57;7.77;;;2.97;;
29500;SDS011;16450;50.288;10.966;2023-02-01T13:54:01;10.97;;;3.20;;
29500;SDS011;16450;50.288;10.966;2023-02-01T13:57:05;11.83;;;2.93;;
29500;SDS011;16450;50.288;10.966;2023-02-01T14:00:32;11.80;;;2.90;;
29500;SDS011;16450;50.288;10.966;2023-02-01T14:03:45;8.50;;;2.70;;
29500;SDS011;16450;50.288;10.966;2023-02-01T14:06:49;10.53;;;2.90;;
29500;SDS011;16450;50.288;10.966;2023-02-01T14:09:54;10.47;;;3.00;;
29500;SDS011;16450;50.288;10.966;2023-02-01T14:13:12;10.93;;;2.93;;
29500;SDS011;16450;50.288;10.966;2023-02-01T14:16:39;11.30;;;3.03;;
29500;SDS011;16450;50.288;10.966;2023-02-01T14:19:41;11.80;;;2.83;;
29500;SDS011;16450;50.288;10.966;2023-02-01T14:22:43;15.93;;;3.07;;
29500;SDS011;16450;50.288;10.966;2023-02-01T14:25:45;8.90;;;2.80;;
29500;SDS011;16450;50.288;10.966;2023-02-01T14:29:03;8.80;;;2.63;;
29500;SDS011;16450;50.288;10.966;2023-02-01T14:32:22;11.10;;;2.50;;
29500;SDS011;16450;50.288;10.966;2023-02-01T14:35:28;9.47;;;2.50;;
29500;SDS011;16450;50.288;10.966;2023-02-01T14:38:31;12.80;;;2.70;;
29500;SDS011;16450;50.288;10.966;2023-02-01T14:41:35;11.23;;;2.73;;
29500;SDS011;16450;50.288;10.966;2023-02-01T14:44:42;11.03;;;2.60;;
29500;SDS011;16450;50.288;10.966;2023-02-01T14:51:08;10.67;;;2.90;;
29500;SDS011;16450;50.288;10.966;2023-02-01T14:54:12;9.83;;;2.60;;
29500;SDS011;16450;50.288;10.966;2023-02-01T14:57:16;8.90;;;2.93;;
29500;SDS011;16450;50.288;10.966;2023-02-01T15:00:24;10.67;;;2.90;;
29500;SDS011;16450;50.288;10.966;2023-02-01T15:09:59;13.03;;;2.63;;
29500;SDS011;16450;50.288;10.966;2023-02-01T15:13:01;9.80;;;2.60;;
29500;SDS011;16450;50.288;10.966;2023-02-01T15:16:10;10.17;;;2.60;;
29500;SDS011;16450;50.288;10.966;2023-02-01T15:19:14;13.33;;;2.73;;
29500;SDS011;16450;50.288;10.966;2023-02-01T15:22:18;13.00;;;3.23;;
29500;SDS011;16450;50.288;10.966;2023-02-01T15:25:21;14.20;;;3.20;;
29500;SDS011;16450;50.288;10.966;2023-02-01T15:28:31;10.97;;;2.70;;
29500;SDS011;16450;50.288;10.966;2023-02-01T15:31:37;12.10;;;2.93;;
29500;SDS011;16450;50.288;10.966;2023-02-01T15:34:51;14.00;;;2.43;;
29500;SDS011;16450;50.288;10.966;2023-02-01T15:38:17;8.00;;;2.90;;
29500;SDS011;16450;50.288;10.966;2023-02-01T15:41:36;11.07;;;2.43;;
29500;SDS011;16450;50.288;10.966;2023-02-01T15:44:45;8.43;;;2.57;;
29500;SDS011;16450;50.288;10.966;2023-02-01T15:47:48;9.73;;;2.57;;
29500;SDS011;16450;50.288;10.966;2023-02-01T15:50:51;10.20;;;2.60;;
29500;SDS011;16450;50.288;10.966;2023-02-01T15:53:59;16.23;;;2.90;;
29500;SDS011;16450;50.288;10.966;2023-02-01T15:57:03;8.87;;;2.53;;
29500;SDS011;16450;50.288;10.966;2023-02-01T16:00:07;7.17;;;2.63;;
29500;SDS011;16450;50.288;10.966;2023-02-01T16:06:30;13.63;;;2.60;;
29500;SDS011;16450;50.288;10.966;2023-02-01T16:09:39;10.20;;;3.93;;
29500;SDS011;16450;50.288;10.966;2023-02-01T16:12:49;13.20;;;2.90;;
29500;SDS011;16450;50.288;10.966;2023-02-01T16:15:53;11.60;;;2.90;;
29500;SDS011;16450;50.288;10.966;2023-02-01T16:18:55;10.97;;;2.73;;
29500;SDS011;16450;50.288;10.966;2023-02-01T16:21:57;8.73;;;2.73;;
29500;SDS011;16450;50.288;10.966;2023-02-01T16:25:00;11.20;;;2.60;;
29500;SDS011;16450;50.288;10.966;2023-02-01T16:28:03;8.60;;;2.50;;
29500;SDS011;16450;50.288;10.966;2023-02-01T16:31:09;11.63;;;3.77;;
29500;SDS011;16450;50.288;10.966;2023-02-01T16:34:20;9.10;;;2.83;;
29500;SDS011;16450;50.288;10.966;2023-02-01T16:37:22;9.73;;;2.40;;
29500;SDS011;16450;50.288;10.966;2023-02-01T16:40:25;7.07;;;2.60;;
29500;SDS011;16450;50.288;10.966;2023-02-01T16:43:27;10.27;;;2.73;;
29500;SDS011;16450;50.288;10.966;2023-02-01T16:46:31;10.57;;;2.53;;
29500;SDS011;16450;50.288;10.966;2023-02-01T16:49:36;9.40;;;2.53;;
29500;SDS011;16450;50.288;10.966;2023-02-01T16:52:39;8.83;;;2.27;;
29500;SDS011;16450;50.288;10.966;2023-02-01T16:55:42;10.97;;;2.57;;
29500;SDS011;16450;50.288;10.966;2023-02-01T16:58:44;11.53;;;2.10;;
29500;SDS011;16450;50.288;10.966;2023-02-01T17:01:47;8.53;;;2.80;;
29500;SDS011;16450;50.288;10.966;2023-02-01T17:04:49;12.13;;;2.50;;
29500;SDS011;16450;50.288;10.966;2023-02-01T17:07:51;17.57;;;2.53;;
29500;SDS011;16450;50.288;10.966;2023-02-01T17:10:53;10.73;;;2.50;;
29500;SDS011;16450;50.288;10.966;2023-02-01T17:17:32;13.17;;;3.40;;
29500;SDS011;16450;50.288;10.966;2023-02-01T17:20:39;11.60;;;2.73;;
29500;SDS011;16450;50.288;10.966;2023-02-01T17:23:43;10.07;;;2.73;;
29500;SDS011;16450;50.288;10.966;2023-02-01T17:26:46;7.97;;;2.70;;
29500;SDS011;16450;50.288;10.966;2023-02-01T17:29:50;8.17;;;2.80;;
29500;SDS011;16450;50.288;10.966;2023-02-01T17:32:51;7.90;;;2.43;;
29500;SDS011;16450;50.288;10.966;2023-02-01T17:35:55;10.90;;;3.00;;
29500;SDS011;16450;50.288;10.966;2023-02-01T17:38:58;10.27;;;2.70;;
29500;SDS011;16450;50.288;10.966;2023-02-01T17:42:10;8.00;;;2.30;;
29500;SDS011;16450;50.288;10.966;2023-02-01T17:45:18;7.77;;;2.47;;
29500;SDS011;16450;50.288;10.966;2023-02-01T17:48:33;10.30;;;3.13;;
29500;SDS011;16450;50.288;10.966;2023-02-01T17:51:35;7.63;;;2.27;;
29500;SDS011;16450;50.288;10.966;2023-02-01T17:54:37;8.40;;;2.50;;
29500;SDS011;16450;50.288;10.966;2023-02-01T17:57:39;8.23;;;2.70;;
29500;SDS011;16450;50.288;10.966;2023-02-01T18:00:41;8.07;;;2.70;;
29500;SDS011;16450;50.288;10.966;2023-02-01T18:03:44;8.90;;;3.07;;
29500;SDS011;16450;50.288;10.966;2023-02-01T18:06:46;7.60;;;2.43;;
29500;SDS011;16450;50.288;10.966;2023-02-01T18:09:47;10.50;;;2.80;;
29500;SDS011;16450;50.288;10.966;2023-02-01T18:12:49;10.83;;;2.73;;
29500;SDS011;16450;50.288;10.966;2023-02-01T18:15:51;13.00;;;3.20;;
29500;SDS011;16450;50.288;10.966;2023-02-01T18:18:54;10.30;;;3.47;;
29500;SDS011;16450;50.288;10.966;2023-02-01T18:22:01;11.57;;;2.80;;
29500;SDS011;16450;50.288;10.966;2023-02-01T18:25:11;10.63;;;3.60;;
29500;SDS011;16450;50.288;10.966;2023-02-01T18:28:21;9.00;;;4.40;;
29500;SDS011;16450;50.288;10.966;2023-02-01T18:31:27;18.63;;;4.80;;
29500;SDS011;16450;50.288;10.966;2023-02-01T18:34:31;12.80;;;3.57;;
29500;SDS011;16450;50.288;10.966;2023-02-01T18:37:33;9.40;;;2.93;;
29500;SDS011;16450;50.288;10.966;2023-02-01T18:40:39;9.50;;;2.93;;
29500;SDS011;16450;50.288;10.966;2023-02-01T18:43:50;9.30;;;3.20;;
29500;SDS011;16450;50.288;10.966;2023-02-01T18:46:53;11.57;;;3.00;;
29500;SDS011;16450;50.288;10.966;2023-02-01T18:49:55;10.10;;;2.57;;
29500;SDS011;16450;50.288;10.966;2023-02-01T18:52:57;9.30;;;2.73;;
29500;SDS011;16450;50.288;10.966;2023-02-01T18:56:00;12.67;;;3.00;;
29500;SDS011;16450;50.288;10.966;2023-02-01T18:59:03;14.83;;;3.40;;
29500;SDS011;16450;50.288;10.966;2023-02-01T19:02:05;11.40;;;3.37;;
29500;SDS011;16450;50.288;10.966;2023-02-01T19:05:07;8.73;;;3.10;;
29500;SDS011;16450;50.288;10.966;2023-02-01T19:08:10;9.23;;;2.67;;
29500;SDS011;16450;50.288;10.966;2023-02-01T19:11:12;9.47;;;2.80;;
29500;SDS011;16450;50.288;10.966;2023-02-01T19:14:14;9.20;;;3.10;;
29500;SDS011;16450;50.288;10.966;2023-02-01T19:17:17;10.50;;;3.53;;
29500;SDS011;16450;50.288;10.966;2023-02-01T19:20:19;10.67;;;4.10;;
29500;SDS011;16450;50.288;10.966;2023-02-01T19:23:24;13.10;;;3.50;;
29500;SDS011;16450;50.288;10.966;2023-02-01T19:26:26;14.57;;;3.30;;
29500;SDS011;16450;50.288;10.966;2023-02-01T19:29:28;11.43;;;3.00;;
29500;SDS011;16450;50.288;10.966;2023-02-01T19:32:30;10.37;;;2.70;;
29500;SDS011;16450;50.288;10.966;2023-02-01T19:35:32;12.17;;;3.47;;
29500;SDS011;16450;50.288;10.966;2023-02-01T19:38:34;12.40;;;3.50;;
29500;SDS011;16450;50.288;10.966;2023-02-01T19:41:36;9.00;;;3.13;;
29500;SDS011;16450;50.288;10.966;2023-02-01T19:44:38;11.97;;;2.97;;
29500;SDS011;16450;50.288;10.966;2023-02-01T19:47:40;13.40;;;3.30;;
29500;SDS011;16450;50.288;10.966;2023-02-01T19:50:42;9.60;;;2.90;;
29500;SDS011;16450;50.288;10.966;2023-02-01T19:53:44;8.53;;;3.13;;